Time;durP1;ratioP1;P1;durP2;ratioP2;P2;SDS_P1;SDS_P2;PMS_P1;PMS_P2;Temp;Humidity;BMP_temperature;BMP_pressure;BME280_temperature;BME280_humidity;BME280_pressure;Samples;Min_cycle;Max_cycle;Signal;HPM_P1;HPM_P2
2024/01/11 00:01:48;;;;;;;35.83;18.27;;;;;;;;;;5030612;28;20079;-71
2024/01/11 00:04:14;;;;;;;32.85;18.92;;;;;;;;;;5032579;28;20029;-71
2024/01/11 00:06:41;;;;;;;40.17;21.23;;;;;;;;;;5033210;28;20485;-70
2024/01/11 00:09:07;;;;;;;40.85;20.10;;;;;;;;;;5033971;28;20448;-69
2024/01/11 00:11:32;;;;;;;37.58;19.27;;;10.00;1.00;;;;;;5036038;28;20033;-69
2024/01/11 00:13:58;;;;;;;37.17;20.33;;;;;;;;;;5050819;28;20036;-69
2024/01/11 00:16:24;;;;;;;42.22;20.45;;;10.00;1.00;;;;;;5033560;28;20606;-69
2024/01/11 00:18:50;;;;;;;43.42;22.45;;;;;;;;;;5033365;28;20047;-70
2024/01/11 00:21:16;;;;;;;35.08;19.75;;;;;;;;;;5033210;28;20044;-69
2024/01/11 00:23:42;;;;;;;37.42;20.08;;;;;;;;;;5016804;28;20477;-70
2024/01/11 00:26:08;;;;;;;45.38;22.52;;;;;;;;;;5032648;28;20073;-69
2024/01/11 00:28:34;;;;;;;43.65;23.70;;;;;;;;;;5033420;28;20075;-70
2024/01/11 00:31:00;;;;;;;38.25;21.05;;;;;;;;;;5017284;28;20099;-70
2024/01/11 00:33:26;;;;;;;38.00;19.65;;;;;;;;;;5033213;28;20493;-70
2024/01/11 00:35:52;;;;;;;46.15;22.75;;;10.00;1.00;;;;;;5033103;28;20040;-70
2024/01/11 00:38:18;;;;;;;38.05;20.77;;;;;;;;;;5033594;28;20033;-70
2024/01/11 00:40:44;;;;;;;38.17;20.63;;;;;;;;;;5033400;28;20051;-69
2024/01/11 00:43:09;;;;;;;38.22;20.48;;;9.90;1.00;;;;;;5016727;28;20135;-70
2024/01/11 00:45:35;;;;;;;43.63;21.88;;;;;;;;;;5016344;28;20504;-70
2024/01/11 00:48:02;;;;;;;40.00;22.27;;;;;;;;;;5033394;28;20124;-70
2024/01/11 00:50:28;;;;;;;42.20;22.33;;;;;;;;;;5033194;28;20044;-70
2024/01/11 00:52:54;;;;;;;40.58;21.27;;;;;;;;;;5033007;28;20037;-70
2024/01/11 00:55:20;;;;;;;40.67;21.83;;;;;;;;;;5015998;28;20041;-70
2024/01/11 00:57:46;;;;;;;40.60;22.20;;;;;;;;;;5033687;28;20044;-70
2024/01/11 01:00:15;;;;;;;42.67;21.95;;;10.00;1.00;;;;;;5020278;28;20503;-70
2024/01/11 01:02:41;;;;;;;39.42;19.83;;;;;;;;;;5036827;28;20033;-70
2024/01/11 01:05:07;;;;;;;40.45;21.20;;;9.90;1.00;;;;;;5036538;28;20040;-68
2024/01/11 01:07:33;;;;;;;41.92;22.17;;;;;;;;;;5036523;28;20040;-70
2024/01/11 01:09:59;;;;;;;39.28;19.75;;;;;;;;;;5020332;28;20411;-69
2024/01/11 01:12:25;;;;;;;41.33;21.00;;;;;;;;;;5036763;28;20041;-70
2024/01/11 01:14:51;;;;;;;40.35;19.98;;;9.80;1.00;;;;;;5036128;28;20046;-70
2024/01/11 01:17:17;;;;;;;41.55;22.15;;;;;;;;;;5036530;28;20033;-69
2024/01/11 01:19:44;;;;;;;40.10;22.25;;;9.90;1.00;;;;;;5036630;28;20447;-70
2024/01/11 01:22:10;;;;;;;46.40;22.27;;;;;;;;;;5036606;28;20045;-70
2024/01/11 01:24:36;;;;;;;41.05;21.33;;;;;;;;;;5036069;28;20087;-70
2024/01/11 01:27:02;;;;;;;45.55;23.48;;;;;;;;;;5036486;28;20052;-70
2024/01/11 01:29:28;;;;;;;44.70;22.65;;;;;;;;;;5036772;28;20444;-70
2024/01/11 01:31:55;;;;;;;49.38;24.90;;;;;;;;;;5036480;28;20083;-69
2024/01/11 01:34:21;;;;;;;51.28;24.33;;;;;;;;;;5035714;28;20044;-70
2024/01/11 01:36:47;;;;;;;46.00;22.73;;;;;;;;;;5036248;28;20683;-70
2024/01/11 01:39:13;;;;;;;48.55;23.63;;;;;;;;;;5036529;28;20056;-69
2024/01/11 01:41:39;;;;;;;40.80;21.88;;;;;;;;;;5036269;28;20168;-68
2024/01/11 01:44:05;;;;;;;49.85;24.48;;;;;;;;;;5036138;28;20045;-69
2024/01/11 01:46:32;;;;;;;47.65;24.85;;;;;;;;;;5036140;28;20520;-70
2024/01/11 01:48:59;;;;;;;46.92;23.52;;;;;;;;;;5036918;28;20405;-71
2024/01/11 01:51:26;;;;;;;44.45;22.88;;;;;;;;;;5036299;28;20048;-71
2024/01/11 01:53:54;;;;;;;44.53;23.77;;;9.80;1.00;;;;;;5035654;28;20397;-70
2024/01/11 01:56:21;;;;;;;47.63;24.83;;;;;;;;;;5035953;28;20080;-71
2024/01/11 01:58:47;;;;;;;54.22;25.17;;;;;;;;;;5036140;28;20068;-70
2024/01/11 02:01:13;;;;;;;50.38;24.83;;;;;;;;;;5035899;28;20131;-70
2024/01/11 02:03:40;;;;;;;51.67;24.92;;;9.80;1.00;;;;;;5035626;28;20048;-70
2024/01/11 02:06:07;;;;;;;56.05;27.02;;;;;;;;;;5018724;28;20041;-68
2024/01/11 02:08:33;;;;;;;51.15;25.00;;;;;;;;;;5035687;28;20262;-70
2024/01/11 02:11:00;;;;;;;48.13;24.30;;;;;;;;;;5035550;28;20075;-71
2024/01/11 02:13:26;;;;;;;51.17;25.48;;;;;;;;;;5035879;28;20400;-71
2024/01/11 02:15:52;;;;;;;48.88;25.08;;;;;;;;;;5034876;28;20045;-70
2024/01/11 02:18:18;;;;;;;47.95;24.88;;;;;;;;;;5018928;28;20036;-71
2024/01/11 02:20:44;;;;;;;50.05;25.17;;;;;;;;;;5035704;28;20127;-70
2024/01/11 02:23:16;;;;;;;47.00;24.30;;;9.90;1.00;;;;;;5035431;28;20500;-70
2024/01/11 02:25:43;;;;;;;45.08;23.83;;;;;;;;;;5034656;28;20037;-71
2024/01/11 02:28:09;;;;;;;49.45;24.58;;;;;;;;;;5035101;28;20048;-71
2024/01/11 02:30:35;;;;;;;48.55;24.63;;;;;;;;;;5019092;28;20459;-71
2024/01/11 02:33:01;;;;;;;50.10;24.33;;;;;;;;;;5035234;28;20049;-71
2024/01/11 02:35:28;;;;;;;47.25;23.48;;;;;;;;;;5034401;28;20095;-71
2024/01/11 02:37:54;;;;;;;48.38;25.27;;;;;;;;;;5035070;28;20052;-69
2024/01/11 02:40:20;;;;;;;46.05;23.90;;;;;;;;;;5035446;28;20048;-71
2024/01/11 02:42:46;;;;;;;50.10;24.45;;;;;;;;;;5035099;28;20120;-71
2024/01/11 02:45:12;;;;;;;51.70;25.85;;;;;;;;;;5038847;28;20072;-71
2024/01/11 02:47:38;;;;;;;47.17;23.35;;;;;;;;;;5028797;28;20525;-71
2024/01/11 02:50:06;;;;;;;52.70;25.55;;;;;;;;;;5034305;28;20048;-71
2024/01/11 02:52:32;;;;;;;46.83;23.48;;;;;;;;;;5034530;28;20159;-71
2024/01/11 02:54:58;;;;;;;52.47;25.80;;;;;;;;;;5033911;28;20045;-70
2024/01/11 02:57:24;;;;;;;51.40;24.65;;;;;;;;;;5051987;28;20595;-70
2024/01/11 02:59:51;;;;;;;49.15;24.60;;;9.70;1.00;;;;;;5034919;28;20037;-71
2024/01/11 03:02:17;;;;;;;48.58;24.30;;;;;;;;;;5034675;28;20033;-71
2024/01/11 03:04:43;;;;;;;48.42;25.20;;;;;;;;;;5033692;28;20145;-71
2024/01/11 03:07:09;;;;;;;51.53;24.75;;;;;;;;;;5017587;28;20047;-71
2024/01/11 03:09:35;;;;;;;51.90;25.00;;;;;;;;;;5034264;28;20037;-71
2024/01/11 03:12:01;;;;;;;48.35;24.33;;;;;;;;;;5034900;28;20095;-70
2024/01/11 03:14:27;;;;;;;51.42;26.20;;;;;;;;;;5034783;28;20044;-71
2024/01/11 03:16:53;;;;;;;54.00;26.35;;;9.60;1.00;;;;;;5034839;28;20504;-71
2024/01/11 03:19:19;;;;;;;51.25;24.58;;;;;;;;;;5034368;28;20045;-70
2024/01/11 03:21:46;;;;;;;51.20;26.90;;;9.40;1.00;;;;;;5033615;28;20041;-70
2024/01/11 03:24:12;;;;;;;51.90;24.67;;;;;;;;;;5033192;28;20091;-71
2024/01/11 03:26:38;;;;;;;52.53;24.45;;;;;;;;;;5033967;28;20048;-71
2024/01/11 03:29:04;;;;;;;50.65;24.30;;;;;;;;;;5033893;28;20041;-71
2024/01/11 03:31:30;;;;;;;51.05;24.67;;;;;;;;;;5032951;28;20041;-71
2024/01/11 03:33:56;;;;;;;48.10;24.10;;;;;;;;;;5017014;28;20412;-69
2024/01/11 03:36:24;;;;;;;50.08;25.38;;;9.50;1.00;;;;;;5017501;28;20052;-70
2024/01/11 03:38:50;;;;;;;51.22;25.23;;;;;;;;;;5033894;28;20037;-71
2024/01/11 03:41:16;;;;;;;56.25;26.83;;;;;;;;;;5034303;28;20045;-70
2024/01/11 03:43:42;;;;;;;48.58;25.17;;;;;;;;;;5033667;28;20120;-70
2024/01/11 03:46:08;;;;;;;55.97;27.17;;;;;;;;;;5033491;28;20036;-71
2024/01/11 03:48:37;;;;;;;49.47;25.75;;;;;;;;;;5033871;28;20037;-71
2024/01/11 03:51:03;;;;;;;53.15;24.67;;;;;;;;;;5034166;28;20036;-71
2024/01/11 03:53:29;;;;;;;53.92;25.38;;;;;;;;;;5017401;28;20045;-71
2024/01/11 03:55:55;;;;;;;48.35;24.40;;;9.50;1.00;;;;;;5033279;28;20045;-71
2024/01/11 03:58:21;;;;;;;51.33;26.05;;;;;;;;;;5033673;28;20128;-71
2024/01/11 04:00:47;;;;;;;55.63;26.65;;;;;;;;;;5032774;28;20048;-69
2024/01/11 04:03:12;;;;;;;51.28;25.35;;;9.50;1.00;;;;;;5033796;28;20040;-71
2024/01/11 04:05:38;;;;;;;54.80;25.45;;;9.50;1.00;;;;;;5033021;28;20512;-70
2024/01/11 04:08:05;;;;;;;54.80;25.98;;;9.50;1.00;;;;;;5033577;28;20033;-70
2024/01/11 04:10:31;;;;;;;50.75;25.05;;;;;;;;;;5033956;28;20095;-71
2024/01/11 04:12:57;;;;;;;53.85;26.20;;;;;;;;;;5033569;28;20504;-70
2024/01/11 04:15:23;;;;;;;54.17;26.33;;;;;;;;;;5033053;28;20072;-71
2024/01/11 04:17:49;;;;;;;51.90;24.85;;;;;;;;;;5033410;28;20421;-71
2024/01/11 04:20:15;;;;;;;53.28;26.63;;;;;;;;;;5033421;28;20041;-70
2024/01/11 04:22:41;;;;;;;55.28;25.98;;;;;;;;;;5033920;28;20045;-70
2024/01/11 04:25:08;;;;;;;54.33;25.80;;;;;;;;;;5036262;22;20048;-70
2024/01/11 04:27:34;;;;;;;57.58;27.20;;;;;;;;;;5030048;28;20045;-70
2024/01/11 04:30:00;;;;;;;53.90;26.00;;;;;;;;;;5031492;28;20037;-70
2024/01/11 04:32:26;;;;;;;48.25;24.45;;;;;;;;;;5031602;28;20394;-71
2024/01/11 04:34:51;;;;;;;51.35;26.33;;;;;;;;;;5033612;28;20044;-70
2024/01/11 04:37:18;;;;;;;50.95;24.67;;;9.60;1.00;;;;;;5034354;28;20045;-70
2024/01/11 04:39:44;;;;;;;53.55;26.05;;;;;;;;;;5017974;28;20103;-70
2024/01/11 04:42:10;;;;;;;54.72;24.65;;;;;;;;;;5034130;28;20536;-71
2024/01/11 04:44:36;;;;;;;52.63;25.75;;;;;;;;;;5033262;28;20047;-71
2024/01/11 04:47:02;;;;;;;55.00;26.65;;;;;;;;;;5033709;28;20038;-70
2024/01/11 04:49:28;;;;;;;53.75;26.58;;;;;;;;;;5034150;28;20470;-70
2024/01/11 04:51:54;;;;;;;51.45;25.45;;;;;;;;;;5017444;28;20073;-70
2024/01/11 04:54:20;;;;;;;50.65;25.35;;;;;;;;;;5033202;28;20038;-71
2024/01/11 04:56:46;;;;;;;56.20;26.42;;;;;;;;;;5033839;28;20111;-71
2024/01/11 04:59:12;;;;;;;57.38;27.15;;;;;;;;;;5017225;28;20045;-70
2024/01/11 05:01:38;;;;;;;54.83;27.63;;;;;;;;;;5033321;28;20049;-70
2024/01/11 05:04:04;;;;;;;53.55;25.75;;;;;;;;;;5032825;28;20128;-70
2024/01/11 05:06:30;;;;;;;58.35;27.77;;;;;;;;;;5032719;28;20038;-70
2024/01/11 05:08:57;;;;;;;59.05;27.92;;;;;;;;;;5016956;28;20045;-70
2024/01/11 05:11:24;;;;;;;53.95;25.95;;;;;;;;;;5033700;28;20049;-69
2024/01/11 05:13:50;;;;;;;60.30;28.17;;;;;;;;;;5032885;28;20053;-70
2024/01/11 05:16:35;;;;;;;52.35;27.23;;;10.10;1.00;;;;;;5016453;28;20041;-70
2024/01/11 05:19:01;;;;;;;58.95;26.77;;;;;;;;;;5033249;28;20053;-70
2024/01/11 05:21:27;;;;;;;63.08;29.88;;;;;;;;;;5016758;28;20042;-69
2024/01/11 05:23:53;;;;;;;56.92;28.27;;;;;;;;;;5032028;28;20041;-70
2024/01/11 05:26:20;;;;;;;56.85;28.35;;;;;;;;;;5016632;28;20569;-70
2024/01/11 05:28:46;;;;;;;58.95;28.63;;;;;;;;;;5032923;28;20033;-70
2024/01/11 05:31:14;;;;;;;55.80;26.98;;;10.50;1.00;;;;;;5016526;28;20051;-70
2024/01/11 05:33:40;;;;;;;51.90;25.73;;;;;;;;;;5033192;28;20049;-70
2024/01/11 05:36:06;;;;;;;58.85;27.60;;;;;;;;;;5015534;28;20041;-69
2024/01/11 05:38:32;;;;;;;59.28;28.13;;;;;;;;;;5032845;28;20131;-70
2024/01/11 05:40:58;;;;;;;55.65;26.13;;;;;;;;;;5032850;28;20052;-71
2024/01/11 05:43:24;;;;;;;54.42;26.20;;;;;;;;;;5032000;28;20041;-70
2024/01/11 05:45:51;;;;;;;55.55;27.65;;;;;;;;;;5030893;28;20575;-71
2024/01/11 05:48:17;;;;;;;51.58;26.10;;;;;;;;;;5031842;28;20053;-70
2024/01/11 05:50:43;;;;;;;56.90;26.45;;;;;;;;;;5030945;28;20041;-70
2024/01/11 05:53:09;;;;;;;58.78;27.55;;;;;;;;;;5032488;28;20049;-71
2024/01/11 05:55:35;;;;;;;58.75;28.80;;;;;;;;;;5031775;28;20493;-70
2024/01/11 05:58:01;;;;;;;56.13;27.65;;;;;;;;;;5032308;28;20045;-70
2024/01/11 06:00:27;;;;;;;51.13;25.75;;;;;;;;;;5032512;28;20045;-70
2024/01/11 06:02:53;;;;;;;49.80;25.88;;;;;;;;;;5032938;28;20492;-70
2024/01/11 06:05:19;;;;;;;54.92;27.50;;;;;;;;;;5031956;28;20033;-70
2024/01/11 06:07:45;;;;;;;52.33;26.95;;;;;;;;;;5032351;28;20391;-70
2024/01/11 06:10:11;;;;;;;54.33;26.65;;;;;;;;;;5031991;28;20033;-68
2024/01/11 06:12:37;;;;;;;50.90;25.77;;;;;;;;;;5032380;28;20049;-70
2024/01/11 06:15:03;;;;;;;52.55;26.90;;;10.70;1.00;;;;;;5031256;28;20038;-70
2024/01/11 06:17:29;;;;;;;54.42;26.80;;;;;;;;;;5032227;28;20172;-70
2024/01/11 06:19:55;;;;;;;53.40;25.40;;;;;;;;;;5032053;28;20045;-70
2024/01/11 06:22:21;;;;;;;51.85;25.85;;;;;;;;;;5032358;28;20041;-70
2024/01/11 06:24:47;;;;;;;50.95;25.75;;;10.80;1.00;;;;;;5014704;28;20045;-70
2024/01/11 06:27:13;;;;;;;54.63;27.23;;;;;;;;;;5030916;28;20033;-70
2024/01/11 06:29:39;;;;;;;53.22;26.20;;;;;;;;;;5031002;28;20045;-70
2024/01/11 06:32:05;;;;;;;53.28;27.63;;;10.90;1.00;;;;;;5032075;28;20133;-70
2024/01/11 06:34:31;;;;;;;56.80;27.75;;;;;;;;;;5031097;28;20073;-70
2024/01/11 06:36:57;;;;;;;51.65;25.98;;;;;;;;;;5032051;28;20053;-70
2024/01/11 06:39:23;;;;;;;49.78;27.73;;;;;;;;;;5031517;28;20037;-70
2024/01/11 06:41:49;;;;;;;50.83;25.33;;;10.90;1.00;;;;;;5032086;28;20572;-70
2024/01/11 06:44:15;;;;;;;45.47;24.33;;;;;;;;;;5030981;28;20049;-71
2024/01/11 06:46:41;;;;;;;48.90;25.67;;;;;;;;;;5032220;28;20068;-71
2024/01/11 06:49:10;;;;;;;51.47;26.40;;;11.00;1.00;;;;;;5032805;28;20525;-70
2024/01/11 06:51:36;;;;;;;50.53;26.33;;;;;;;;;;5031027;28;20037;-70
2024/01/11 06:54:02;;;;;;;52.97;26.63;;;;;;;;;;5029889;28;20049;-70
2024/01/11 06:56:28;;;;;;;50.22;26.67;;;;;;;;;;5013838;28;20048;-70
2024/01/11 06:58:55;;;;;;;50.17;24.92;;;;;;;;;;5031189;28;20052;-70
2024/01/11 07:01:21;;;;;;;52.45;27.23;;;;;;;;;;5031382;28;20081;-71
2024/01/11 07:03:47;;;;;;;50.47;25.75;;;;;;;;;;5029445;28;20497;-69
2024/01/11 07:06:13;;;;;;;46.38;24.23;;;;;;;;;;5014186;28;20128;-70
2024/01/11 07:08:39;;;;;;;52.22;26.30;;;;;;;;;;5030349;28;20184;-68
2024/01/11 07:11:05;;;;;;;54.03;26.65;;;;;;;;;;5030740;28;20128;-71
2024/01/11 07:13:31;;;;;;;50.08;26.75;;;;;;;;;;5014374;28;20068;-70
2024/01/11 07:15:58;;;;;;;47.03;24.77;;;;;;;;;;5024665;28;20057;-70
2024/01/11 07:18:30;;;;;;;49.88;25.23;;;;;;;;;;5114622;27;20387;-70
2024/01/11 07:21:00;;;;;;;55.38;27.55;;;;;;;;;;5107475;28;20035;-70
2024/01/11 07:23:27;;;;;;;51.75;26.50;;;;;;;;;;5124407;28;20035;-68
2024/01/11 07:25:53;;;;;;;55.17;30.00;;;;;;;;;;5105404;28;20132;-70
2024/01/11 07:28:24;;;;;;;53.10;26.75;;;;;;;;;;5103217;28;20071;-70
2024/01/11 07:30:50;;;;;;;50.33;26.73;;;;;;;;;;5103867;28;20529;-70
2024/01/11 07:33:16;;;;;;;51.42;27.25;;;;;;;;;;5103971;28;20039;-69
2024/01/11 07:35:42;;;;;;;51.00;27.30;;;;;;;;;;5103415;28;20195;-69
2024/01/11 07:38:08;;;;;;;52.63;26.83;;;;;;;;;;5102827;28;20570;-69
2024/01/11 07:40:34;;;;;;;53.05;26.35;;;;;;;;;;5103651;28;20131;-70
2024/01/11 07:43:00;;;;;;;53.00;27.20;;;;;;;;;;5102662;28;20507;-69
2024/01/11 07:45:26;;;;;;;53.25;26.73;;;;;;;;;;5102755;28;20040;-69
2024/01/11 07:47:52;;;;;;;57.15;27.95;;;;;;;;;;5103413;28;20297;-68
2024/01/11 07:50:18;;;;;;;58.72;27.25;;;;;;;;;;5102984;28;20143;-69
2024/01/11 07:52:45;;;;;;;56.70;26.77;;;;;;;;;;5103386;28;20043;-70
2024/01/11 07:55:12;;;;;;;59.50;27.85;;;;;;;;;;5100908;28;20048;-69
2024/01/11 07:57:39;;;;;;;54.92;25.95;;;;;;;;;;5103076;28;20046;-69
2024/01/11 08:00:06;;;;;;;56.40;29.73;;;;;;;;;;5103317;28;20119;-72
2024/01/11 08:02:32;;;;;;;57.80;28.55;;;;;;;;;;5103375;28;20035;-69
2024/01/11 08:04:59;;;;;;;51.25;26.17;;;;;;;;;;5085210;28;20084;-68
2024/01/11 08:07:25;;;;;;;56.67;27.63;;;;;;;;;;5102777;28;20231;-68
2024/01/11 08:09:51;;;;;;;53.55;28.05;;;;;;;;;;5103176;28;20079;-72
2024/01/11 08:12:18;;;;;;;54.83;28.35;;;;;;;;;;5134979;27;20070;-70
2024/01/11 08:14:46;;;;;;;54.00;28.27;;;;;;;;;;5102450;28;20053;-67
2024/01/11 08:17:13;;;;;;;51.65;26.67;;;;;;;;;;5102254;28;20407;-71
2024/01/11 08:19:39;;;;;;;50.22;27.30;;;;;;;;;;5102655;28;20110;-70
2024/01/11 08:22:05;;;;;;;49.65;26.17;;;;;;;;;;5085220;28;20043;-68
2024/01/11 08:24:31;;;;;;;51.83;26.13;;;;;;;;;;5102317;28;20039;-70
2024/01/11 08:26:58;;;;;;;57.00;27.13;;;;;;;;;;5102950;28;20380;-70
2024/01/11 08:29:24;;;;;;;54.05;26.83;;;;;;;;;;5091707;28;20036;-70
2024/01/11 08:31:50;;;;;;;53.70;26.23;;;;;;;;;;5093087;28;20089;-70
2024/01/11 08:34:16;;;;;;;51.60;25.98;;;;;;;;;;5091288;28;20079;-68
2024/01/11 08:36:42;;;;;;;56.40;27.70;;;;;;;;;;5075878;28;20122;-71
2024/01/11 08:39:11;;;;;;;53.00;27.17;;;;;;;;;;5093286;28;20423;-71
2024/01/11 08:41:40;;;;;;;55.20;28.10;;;;;;;;;;5092865;28;20093;-68
2024/01/11 08:44:06;;;;;;;52.60;26.60;;;;;;;;;;5075253;28;20496;-71
2024/01/11 08:46:35;;;;;;;51.00;26.17;;;;;;;;;;5090683;28;20043;-70
2024/01/11 08:49:03;;;;;;;51.28;27.08;;;;;;;;;;5089330;28;20042;-69
2024/01/11 08:51:29;;;;;;;47.45;24.73;;;;;;;;;;5075975;28;20044;-71
2024/01/11 08:53:55;;;;;;;54.63;29.52;;;;;;;;;;5074879;28;20121;-71
2024/01/11 08:56:21;;;;;;;54.30;26.45;;;;;;;;;;5075372;28;20039;-71
2024/01/11 08:58:50;;;;;;;50.88;27.20;;;;;;;;;;5075685;28;20043;-70
2024/01/11 09:01:17;;;;;;;49.35;27.92;;;;;;;;;;5075321;28;20098;-69
2024/01/11 09:03:44;;;;;;;57.00;29.17;;;;;;;;;;5092395;28;20109;-71
2024/01/11 09:06:13;;;;;;;55.50;28.80;;;;;;;;;;5091392;28;20118;-70
2024/01/11 09:08:41;;;;;;;49.78;26.98;;;;;;;;;;5092172;28;20032;-69
2024/01/11 09:11:07;;;;;;;54.85;28.88;;;;;;;;;;5075743;28;20062;-71
2024/01/11 09:13:33;;;;;;;54.30;27.35;;;;;;;;;;5075147;28;20086;-70
2024/01/11 09:15:59;;;;;;;51.28;26.45;;;;;;;;;;5091484;28;20449;-71
2024/01/11 09:18:25;;;;;;;50.65;25.73;;;;;;;;;;5074814;28;20072;-71
2024/01/11 09:20:51;;;;;;;53.33;27.30;;;12.20;1.00;;;;;;5091923;28;20119;-70
2024/01/11 09:23:18;;;;;;;50.53;26.55;;;;;;;;;;5091772;28;20098;-70
2024/01/11 09:25:44;;;;;;;56.70;28.58;;;;;;;;;;5091337;28;20044;-71
2024/01/11 09:28:10;;;;;;;55.97;28.98;;;;;;;;;;5091578;28;20044;-70
2024/01/11 09:30:36;;;;;;;54.50;28.23;;;;;;;;;;5091683;28;20765;-70
2024/01/11 09:33:03;;;;;;;49.15;26.77;;;;;;;;;;5091825;28;20044;-70
2024/01/11 09:35:29;;;;;;;50.65;27.05;;;;;;;;;;5074800;28;20040;-70
2024/01/11 09:37:55;;;;;;;53.15;28.55;;;;;;;;;;5091660;28;20135;-70
2024/01/11 09:40:22;;;;;;;53.38;26.45;;;;;;;;;;5090753;28;20135;-71
2024/01/11 09:42:48;;;;;;;54.67;27.15;;;;;;;;;;5091347;28;20040;-70
2024/01/11 09:45:18;;;;;;;51.70;25.63;;;;;;;;;;5074118;28;20135;-70
2024/01/11 09:47:48;;;;;;;51.13;26.67;;;;;;;;;;5092983;28;20123;-70
2024/01/11 09:50:17;;;;;;;47.67;26.35;;;;;;;;;;5074663;28;20557;-70
2024/01/11 09:52:46;;;;;;;55.97;29.10;;;;;;;;;;5091342;28;20048;-71
2024/01/11 09:55:13;;;;;;;49.75;25.17;;;;;;;;;;5091003;28;20135;-71
2024/01/11 09:57:44;;;;;;;50.35;26.88;;;12.60;1.00;;;;;;5090681;28;20052;-71
2024/01/11 10:00:10;;;;;;;42.80;23.85;;;;;;;;;;5091124;28;20028;-72
2024/01/11 10:02:35;;;;;;;48.50;25.95;;;12.60;1.00;;;;;;5091572;28;20433;-71
2024/01/11 10:05:01;;;;;;;45.60;23.58;;;;;;;;;;5090343;28;20096;-72
2024/01/11 10:07:30;;;;;;;43.58;24.05;;;12.70;1.00;;;;;;5074124;28;20044;-72
2024/01/11 10:09:58;;;;;;;47.00;23.80;;;12.70;1.00;;;;;;5090856;28;20040;-69
2024/01/11 10:12:25;;;;;;;43.42;23.67;;;;;;;;;;5090893;28;20040;-72
2024/01/11 10:14:54;;;;;;;46.17;25.27;;;;;;;;;;5090404;28;20048;-71
2024/01/11 10:17:20;;;;;;;42.17;23.38;;;;;;;;;;5090376;28;20067;-71
2024/01/11 10:19:46;;;;;;;46.38;24.88;;;;;;;;;;5091326;28;20119;-72
2024/01/11 10:22:16;;;;;;;43.50;24.08;;;;;;;;;;5091364;28;20047;-71
2024/01/11 10:24:42;;;;;;;44.13;23.42;;;12.80;1.00;;;;;;5090737;28;20072;-71
2024/01/11 10:27:09;;;;;;;45.25;23.17;;;12.80;1.00;;;;;;5091008;28;20117;-72
2024/01/11 10:29:38;;;;;;;43.70;23.42;;;;;;;;;;5090890;28;20043;-72
2024/01/11 10:32:04;;;;;;;40.58;22.10;;;;;;;;;;5091044;28;20039;-71
2024/01/11 10:34:30;;;;;;;42.38;23.25;;;12.90;1.00;;;;;;5073187;28;20070;-72
2024/01/11 10:36:57;;;;;;;40.70;22.17;;;;;;;;;;5090745;28;20040;-71
2024/01/11 10:39:27;;;;;;;43.35;23.00;;;;;;;;;;5090548;28;20048;-72
2024/01/11 10:42:09;;;;;;;44.75;22.90;;;12.90;1.00;;;;;;5090930;28;20121;-71
2024/01/11 10:44:35;;;;;;;41.30;21.60;;;12.80;1.00;;;;;;5090096;28;20101;-72
2024/01/11 10:47:05;;;;;;;42.53;22.23;;;;;;;;;;5090492;28;20082;-70
2024/01/11 10:49:33;;;;;;;42.25;22.42;;;;;;;;;;5090578;28;20553;-67
2024/01/11 10:52:07;;;;;;;41.13;22.15;;;13.10;1.00;;;;;;5090251;28;20043;-70
2024/01/11 10:54:34;;;;;;;44.15;23.42;;;13.10;1.00;;;;;;5072874;28;20054;-72
2024/01/11 10:57:00;;;;;;;41.70;23.05;;;;;;;;;;5090625;28;20042;-72
2024/01/11 10:59:31;;;;;;;44.05;23.55;;;12.80;1.00;;;;;;5090624;28;20043;-72
2024/01/11 11:01:58;;;;;;;44.63;23.33;;;;;;;;;;5090590;28;20032;-70
2024/01/11 11:04:27;;;;;;;41.63;22.58;;;;;;;;;;5089637;28;20043;-72
2024/01/11 11:06:59;;;;;;;41.70;21.25;;;;;;;;;;5090432;28;20048;-69
2024/01/11 11:09:25;;;;;;;38.88;21.02;;;;;;;;;;5090066;28;20040;-70
2024/01/11 11:11:54;;;;;;;41.55;22.85;;;;;;;;;;5090494;28;20472;-70
2024/01/11 11:14:20;;;;;;;37.60;20.92;;;;;;;;;;5089590;28;20082;-67
2024/01/11 11:16:46;;;;;;;41.28;21.55;;;;;;;;;;5089646;28;20460;-70
2024/01/11 11:19:12;;;;;;;41.33;21.65;;;;;;;;;;5090054;28;20067;-70
2024/01/11 11:21:45;;;;;;;38.28;21.67;;;13.30;1.00;;;;;;5090213;28;20089;-70
2024/01/11 11:24:11;;;;;;;40.17;20.85;;;;;;;;;;5089684;28;20119;-70
2024/01/11 11:26:37;;;;;;;33.78;18.98;;;13.20;1.00;;;;;;5073046;28;20036;-72
2024/01/11 11:29:06;;;;;;;39.67;21.13;;;13.20;1.00;;;;;;5089961;28;20093;-71
2024/01/11 11:31:36;;;;;;;37.17;20.67;;;13.10;1.00;;;;;;5072428;28;20048;-71
2024/01/11 11:34:03;;;;;;;40.30;21.52;;;13.30;1.00;;;;;;5089274;28;20448;-68
2024/01/11 11:36:30;;;;;;;41.05;22.02;;;13.40;1.00;;;;;;5089209;28;20036;-70
2024/01/11 11:39:00;;;;;;;36.88;20.15;;;;;;;;;;5089579;28;20036;-69
2024/01/11 11:41:26;;;;;;;36.55;19.92;;;;;;;;;;5087144;28;20040;-72
2024/01/11 11:43:53;;;;;;;38.60;21.70;;;;;;;;;;5072765;28;20588;-70
2024/01/11 11:46:19;;;;;;;38.75;21.30;;;;;;;;;;5082240;28;20043;-71
2024/01/11 11:48:50;;;;;;;36.20;19.95;;;;;;;;;;5085490;28;20038;-69
2024/01/11 11:51:17;;;;;;;35.13;19.95;;;;;;;;;;5086062;28;20040;-69
2024/01/11 11:53:43;;;;;;;34.53;19.92;;;;;;;;;;5085990;28;20530;-70
2024/01/11 11:56:10;;;;;;;34.63;19.17;;;;;;;;;;5078030;28;20036;-67
2024/01/11 11:58:37;;;;;;;36.92;19.95;;;;;;;;;;5066623;28;20039;-70
2024/01/11 12:01:04;;;;;;;35.92;18.58;;;;;;;;;;5093019;28;20105;-69
2024/01/11 12:03:37;;;;;;;41.03;21.10;;;13.70;1.00;;;;;;5121962;27;20499;-69
2024/01/11 12:06:03;;;;;;;37.92;20.80;;;;;;;;;;5075086;28;20040;-70
2024/01/11 12:08:30;;;;;;;33.42;17.88;;;;;;;;;;5095632;28;20040;-69
2024/01/11 12:10:55;;;;;;;37.17;19.55;;;13.70;1.00;;;;;;5096201;28;20506;-70
2024/01/11 12:13:22;;;;;;;36.88;20.23;;;;;;;;;;5092136;28;20044;-69
2024/01/11 12:15:47;;;;;;;34.58;19.05;;;13.60;1.00;;;;;;5091687;28;20044;-68
2024/01/11 12:18:14;;;;;;;32.45;18.40;;;;;;;;;;5129031;27;20067;-69
2024/01/11 12:20:39;;;;;;;38.88;18.70;;;13.60;1.00;;;;;;5099224;28;20453;-69
2024/01/11 12:23:05;;;;;;;38.85;20.50;;;13.80;1.00;;;;;;5100821;28;20032;-70
2024/01/11 12:25:32;;;;;;;37.65;19.67;;;;;;;;;;5101316;28;20031;-70
2024/01/11 12:27:57;;;;;;;35.53;19.38;;;13.80;1.00;;;;;;5100929;28;20056;-69
2024/01/11 12:30:24;;;;;;;36.33;18.58;;;;;;;;;;5097953;28;20514;-69
2024/01/11 12:32:56;;;;;;;35.75;19.42;;;13.50;1.00;;;;;;5093336;28;20048;-71
2024/01/11 12:35:23;;;;;;;36.83;19.73;;;13.70;1.00;;;;;;5075649;28;20456;-69
2024/01/11 12:37:56;;;;;;;41.22;21.02;;;13.60;1.00;;;;;;5092708;28;20048;-69
2024/01/11 12:40:22;;;;;;;37.22;19.85;;;;;;;;;;5093308;28;20466;-70
2024/01/11 12:42:49;;;;;;;34.80;19.63;;;14.00;1.00;;;;;;5092448;28;20032;-71
2024/01/11 12:45:16;;;;;;;34.13;18.90;;;;;;;;;;5091891;28;20036;-68
2024/01/11 12:47:42;;;;;;;34.47;18.25;;;;;;;;;;5075462;28;20078;-70
2024/01/11 12:50:08;;;;;;;35.75;19.88;;;14.00;1.00;;;;;;5093670;28;20040;-71
2024/01/11 12:52:33;;;;;;;32.78;18.42;;;13.80;1.00;;;;;;5092037;28;20036;-70
2024/01/11 12:54:59;;;;;;;35.45;19.23;;;;;;;;;;5091336;28;20047;-70
2024/01/11 12:57:26;;;;;;;39.08;20.48;;;;;;;;;;5092309;28;20419;-71
2024/01/11 12:59:52;;;;;;;34.40;17.60;;;13.80;1.00;;;;;;5075865;28;20522;-71
2024/01/11 13:02:19;;;;;;;34.88;18.30;;;;;;;;;;5092623;28;20050;-71
2024/01/11 13:04:46;;;;;;;33.92;18.27;;;;;;;;;;5092073;28;20032;-70
2024/01/11 13:07:15;;;;;;;38.72;20.05;;;14.00;1.00;;;;;;5075333;28;20044;-70
2024/01/11 13:09:41;;;;;;;36.10;18.58;;;;;;;;;;5075880;28;20500;-71
2024/01/11 13:12:08;;;;;;;36.30;18.73;;;;;;;;;;5092458;28;20040;-71
2024/01/11 13:14:33;;;;;;;37.90;19.92;;;14.10;1.00;;;;;;5091898;28;20040;-71
2024/01/11 13:16:59;;;;;;;30.35;17.83;;;;;;;;;;5092305;28;20036;-71
2024/01/11 13:19:25;;;;;;;34.42;18.40;;;;;;;;;;5092116;28;20036;-70
2024/01/11 13:21:52;;;;;;;34.53;18.63;;;14.10;1.00;;;;;;5092380;28;20066;-71
2024/01/11 13:24:18;;;;;;;32.05;17.23;;;;;;;;;;5074591;28;20043;-71
2024/01/11 13:26:44;;;;;;;36.70;17.38;;;;;;;;;;5093368;28;20115;-71
2024/01/11 13:29:11;;;;;;;37.75;17.58;;;;;;;;;;5092098;28;20122;-71
2024/01/11 13:31:36;;;;;;;35.40;16.73;;;14.10;1.00;;;;;;5092310;28;20047;-71
2024/01/11 13:34:03;;;;;;;33.55;17.45;;;;;;;;;;5090937;28;20518;-71
2024/01/11 13:36:29;;;;;;;36.95;16.27;;;;;;;;;;5091775;28;20055;-71
2024/01/11 13:38:55;;;;;;;35.03;17.33;;;;;;;;;;5090994;28;20096;-71
2024/01/11 13:41:22;;;;;;;32.30;16.67;;;;;;;;;;5091421;28;20127;-68
2024/01/11 13:43:47;;;;;;;37.28;16.23;;;14.40;1.00;;;;;;5095560;28;20498;-71
2024/01/11 13:46:16;;;;;;;37.85;17.13;;;;;;;;;;5090468;28;20076;-71
2024/01/11 13:48:42;;;;;;;34.20;16.65;;;;;;;;;;5091311;28;20065;-70
2024/01/11 13:51:12;;;;;;;33.03;15.90;;;;;;;;;;5090173;28;20122;-69
2024/01/11 13:53:38;;;;;;;37.97;16.38;;;;;;;;;;5088748;28;20119;-71